Time;durP1;ratioP1;P1;durP2;ratioP2;P2;SDS_P1;SDS_P2;PMS_P1;PMS_P2;Temp;Humidity;BMP_temperature;BMP_pressure;BME280_temperature;BME280_humidity;BME280_pressure;Samples;Min_cycle;Max_cycle;Signal;HPM_P1;HPM_P2
2023/12/02 00:01:15;;;;;;;;;;;-0.90;99.90;;;;;;5130829;27;19926;-74
2023/12/02 00:03:41;;;;;;;;;;;-0.90;99.90;;;;;;5130340;27;20370;-74
2023/12/02 00:06:06;;;;;;;;;;;-0.80;99.90;;;;;;5113500;28;19965;-74
2023/12/02 00:08:32;;;;;;;;;;;-0.80;99.90;;;;;;5113279;28;19920;-73
2023/12/02 00:10:58;;;;;;;;;;;-0.80;99.90;;;;;;5113549;28;19920;-74
2023/12/02 00:13:24;;;;;;;;;;;-0.90;99.90;;;;;;5113505;28;20282;-73
2023/12/02 00:15:49;;;;;;;;;;;-0.90;99.90;;;;;;5112900;28;20374;-74
2023/12/02 00:18:15;;;;;;;;;;;-0.80;99.90;;;;;;5113271;28;19992;-73
2023/12/02 00:20:40;;;;;;;;;;;-0.80;99.90;;;;;;5130413;27;19974;-74
2023/12/02 00:23:06;;;;;;;;;;;-0.80;99.90;;;;;;5112858;28;19927;-74
2023/12/02 00:25:31;;;;;;;;;;;-0.90;99.90;;;;;;5112947;28;19988;-74
2023/12/02 00:27:57;;;;;;;;;;;-0.80;99.90;;;;;;5112791;28;19994;-73
2023/12/02 00:30:23;;;;;;;;;;;-0.80;99.90;;;;;;5112429;28;19919;-74
2023/12/02 00:32:48;;;;;;;;;;;-0.80;99.90;;;;;;5130099;27;19939;-74
2023/12/02 00:35:14;;;;;;;;;;;-0.80;99.90;;;;;;5112773;28;20397;-74
2023/12/02 00:37:40;;;;;;;;;;;-0.90;99.90;;;;;;5129791;27;19924;-74
2023/12/02 00:40:06;;;;;;;;;;;-0.80;99.90;;;;;;5129692;27;19919;-74
2023/12/02 00:42:31;;;;;;;;;;;-0.90;99.90;;;;;;5112625;28;19915;-74
2023/12/02 00:44:57;;;;;;;;;;;-0.80;99.90;;;;;;5147296;27;19923;-74
2023/12/02 00:47:23;;;;;;;;;;;-0.80;99.90;;;;;;5129699;27;20279;-74
2023/12/02 00:49:48;;;;;;;;;;;-0.90;99.90;;;;;;5112448;28;19927;-74
2023/12/02 00:52:14;;;;;;;;;;;-0.80;99.90;;;;;;5112365;28;19963;-74
2023/12/02 00:54:40;;;;;;;;;;;-0.90;99.90;;;;;;5129338;27;19974;-74
2023/12/02 00:57:05;;;;;;;;;;;-0.90;99.90;;;;;;5112253;28;19968;-74
2023/12/02 00:59:31;;;;;;;;;;;-0.80;99.90;;;;;;5112118;28;19920;-74
2023/12/02 01:01:57;;;;;;;;;;;-0.80;99.90;;;;;;5112209;28;20351;-73
2023/12/02 01:04:22;;;;;;;;;;;-0.80;99.90;;;;;;5095173;28;19950;-74
2023/12/02 01:06:48;;;;;;;;;;;-0.80;99.90;;;;;;5112480;28;19919;-74
2023/12/02 01:09:13;;;;;;;;;;;-0.90;99.90;;;;;;5112032;28;20393;-74
2023/12/02 01:11:39;;;;;;;;;;;-0.90;99.90;;;;;;5129158;27;19923;-74
2023/12/02 01:14:04;;;;;;;;;;;-0.80;99.90;;;;;;5111836;28;19926;-74
2023/12/02 01:16:30;;;;;;;;;;;-0.80;99.90;;;;;;5111898;28;19920;-74
2023/12/02 01:18:55;;;;;;;;;;;-0.80;99.90;;;;;;5111853;28;19970;-73
2023/12/02 01:21:21;;;;;;;;;;;-0.80;99.90;;;;;;5112457;28;19915;-73
2023/12/02 01:23:48;;;;;;;;;;;-0.80;99.90;;;;;;5111806;28;20328;-74
2023/12/02 01:26:13;;;;;;;;;;;-0.80;99.90;;;;;;5128808;27;19916;-74
2023/12/02 01:28:39;;;;;;;;;;;-0.80;99.90;;;;;;5111419;28;19923;-73
2023/12/02 01:31:04;;;;;;;;;;;-0.80;99.90;;;;;;5111578;28;20014;-74
2023/12/02 01:33:30;;;;;;;;;;;-0.80;99.90;;;;;;5111636;28;19970;-73
2023/12/02 01:35:55;;;;;;;;;;;-0.80;99.90;;;;;;5111970;28;19942;-73
2023/12/02 01:38:21;;;;;;;;;;;-0.80;99.90;;;;;;5111313;28;19976;-74
2023/12/02 01:40:47;;;;;;;;;;;-0.80;99.90;;;;;;5128446;27;20021;-74
2023/12/02 01:43:25;;;;;;;;;;;-0.80;99.90;;;;;;5111398;28;20019;-74
2023/12/02 01:45:51;;;;;;;;;;;-0.80;99.90;;;;;;5111318;28;20317;-74
2023/12/02 01:48:18;;;;;;;;;;;-0.80;99.90;;;;;;5111290;28;20402;-74
2023/12/02 01:50:44;;;;;;;;;;;-0.80;99.90;;;;;;5111433;28;19939;-74
2023/12/02 01:53:10;;;;;;;;;;;-0.80;99.90;;;;;;5128304;27;19982;-74
2023/12/02 01:55:35;;;;;;;;;;;-0.80;99.90;;;;;;5111311;28;20018;-74
2023/12/02 01:58:01;;;;;;;;;;;-0.80;99.90;;;;;;5110998;28;20371;-74
2023/12/02 02:00:27;;;;;;;;;;;-0.80;99.90;;;;;;5111112;28;19920;-74
2023/12/02 02:02:52;;;;;;;;;;;-0.80;99.90;;;;;;5111136;28;20336;-74
2023/12/02 02:05:18;;;;;;;;;;;-0.80;99.90;;;;;;5111148;28;19916;-74
2023/12/02 02:07:43;;;;;;;;;;;-0.80;99.90;;;;;;5111279;28;20309;-74
2023/12/02 02:10:09;;;;;;;;;;;-0.90;99.90;;;;;;5128117;27;19949;-74
2023/12/02 02:12:35;;;;;;;;;;;-0.90;99.90;;;;;;5111050;28;20266;-74
2023/12/02 02:15:01;;;;;;;;;;;-0.90;99.90;;;;;;5110648;28;20454;-74
2023/12/02 02:17:27;;;;;;;;;;;-0.90;99.90;;;;;;5110214;28;19973;-74
2023/12/02 02:19:52;;;;;;;;;;;-1.00;99.90;;;;;;5110699;28;19974;-75
2023/12/02 02:22:18;;;;;;;;;;;-1.00;99.90;;;;;;5110534;28;19920;-74
2023/12/02 02:24:44;;;;;;;;;;;-1.00;99.90;;;;;;5127614;27;20268;-74
2023/12/02 02:27:09;;;;;;;;;;;-1.00;99.90;;;;;;5110593;28;19972;-74
2023/12/02 02:29:35;;;;;;;;;;;-1.00;99.90;;;;;;5093459;28;19919;-74
2023/12/02 02:32:01;;;;;;;;;;;-1.10;99.90;;;;;;5110412;28;19964;-74
2023/12/02 02:34:27;;;;;;;;;;;-1.00;99.90;;;;;;5110684;28;19926;-74
2023/12/02 02:36:53;;;;;;;;;;;-1.10;99.90;;;;;;5127581;27;20350;-74
2023/12/02 02:39:19;;;;;;;;;;;-1.20;99.90;;;;;;5110343;28;20014;-74
2023/12/02 02:41:44;;;;;;;;;;;-1.10;99.90;;;;;;5110800;28;19972;-74
2023/12/02 02:44:10;;;;;;;;;;;-1.10;99.90;;;;;;5127572;27;20006;-74
2023/12/02 02:46:36;;;;;;;;;;;-1.10;99.90;;;;;;5111062;28;19973;-74
2023/12/02 02:49:02;;;;;;;;;;;-1.20;99.90;;;;;;5128209;28;19915;-74
2023/12/02 02:51:28;;;;;;;;;;;-1.10;99.90;;;;;;5145057;27;19916;-74
2023/12/02 02:53:54;;;;;;;;;;;-1.10;99.90;;;;;;5110678;28;19919;-74
2023/12/02 02:56:19;;;;;;;;;;;-1.20;99.90;;;;;;5110410;28;20370;-74
2023/12/02 02:58:45;;;;;;;;;;;-1.20;99.90;;;;;;5110226;28;19938;-74
2023/12/02 03:01:11;;;;;;;;;;;-1.20;99.90;;;;;;5109123;28;19922;-74
2023/12/02 03:03:36;;;;;;;;;;;-1.10;99.90;;;;;;5108706;28;19919;-74
2023/12/02 03:06:02;;;;;;;;;;;-1.20;99.90;;;;;;5126525;28;19916;-74
2023/12/02 03:08:28;;;;;;;;;;;-1.20;99.90;;;;;;5110617;28;19970;-74
2023/12/02 03:10:53;;;;;;;;;;;-1.20;99.90;;;;;;5109750;28;20381;-74
2023/12/02 03:13:19;;;;;;;;;;;-1.20;99.90;;;;;;5126602;28;19915;-74
2023/12/02 03:15:44;;;;;;;;;;;-1.20;99.90;;;;;;5110013;28;20050;-74
2023/12/02 03:18:10;;;;;;;;;;;-1.20;99.90;;;;;;5110070;28;19923;-74
2023/12/02 03:20:35;;;;;;;;;;;-1.20;99.90;;;;;;5109950;28;19916;-74
2023/12/02 03:23:01;;;;;;;;;;;-1.20;99.90;;;;;;5127505;28;19916;-74
2023/12/02 03:25:26;;;;;;;;;;;-1.20;99.90;;;;;;5126987;27;20323;-74
2023/12/02 03:27:52;;;;;;;;;;;-1.20;99.90;;;;;;5127460;27;19920;-74
2023/12/02 03:30:18;;;;;;;;;;;-1.30;99.90;;;;;;5113637;28;19916;-74
2023/12/02 03:32:43;;;;;;;;;;;-1.20;99.90;;;;;;5130954;27;19964;-74
2023/12/02 03:35:09;;;;;;;;;;;-1.20;99.90;;;;;;5113865;28;19939;-74
2023/12/02 03:37:36;;;;;;;;;;;-1.30;99.90;;;;;;5113843;28;19923;-74
2023/12/02 03:40:02;;;;;;;;;;;-1.30;99.90;;;;;;5114452;28;19924;-74
2023/12/02 03:42:28;;;;;;;;;;;-1.30;99.90;;;;;;5114338;28;19926;-74
2023/12/02 03:44:55;;;;;;;;;;;-1.20;99.90;;;;;;5096750;28;19926;-74
2023/12/02 03:47:20;;;;;;;;;;;-1.30;99.90;;;;;;5130784;27;19924;-74
2023/12/02 03:49:46;;;;;;;;;;;-1.20;99.90;;;;;;5130668;27;19938;-74
2023/12/02 03:52:11;;;;;;;;;;;-1.30;99.90;;;;;;5131033;27;19966;-74
2023/12/02 03:54:37;;;;;;;;;;;-1.30;99.90;;;;;;5113537;28;19920;-75
2023/12/02 03:57:02;;;;;;;;;;;-1.30;99.90;;;;;;5113493;28;19992;-74
2023/12/02 03:59:28;;;;;;;;;;;-1.30;99.90;;;;;;5113426;28;19920;-74
2023/12/02 04:01:53;;;;;;;;;;;-1.30;99.90;;;;;;5096313;28;20026;-74
2023/12/02 04:04:19;;;;;;;;;;;-1.30;99.90;;;;;;5113575;28;19916;-74
2023/12/02 04:06:45;;;;;;;;;;;-1.30;99.90;;;;;;5110399;28;19931;-74
2023/12/02 04:09:11;;;;;;;;;;;-1.30;99.90;;;;;;5112686;28;19987;-74
2023/12/02 04:11:36;;;;;;;;;;;-1.30;99.90;;;;;;5112539;28;20370;-74
2023/12/02 04:14:02;;;;;;;;;;;-1.30;99.90;;;;;;5102993;28;19927;-74
2023/12/02 04:16:27;;;;;;;;;;;-1.30;99.90;;;;;;5125909;27;20282;-74
2023/12/02 04:18:53;;;;;;;;;;;-1.30;99.90;;;;;;5091644;28;19923;-74
2023/12/02 04:21:18;;;;;;;;;;;-1.30;99.90;;;;;;5126834;27;19985;-74
2023/12/02 04:23:44;;;;;;;;;;;-1.30;99.90;;;;;;5091972;28;19931;-74
2023/12/02 04:26:10;;;;;;;;;;;-1.20;99.90;;;;;;5127040;27;19935;-73
2023/12/02 04:28:36;;;;;;;;;;;-1.40;99.90;;;;;;5092221;28;20389;-73
2023/12/02 04:31:02;;;;;;;;;;;-1.30;99.90;;;;;;5126793;27;20416;-74
2023/12/02 04:33:28;;;;;;;;;;;-1.30;99.90;;;;;;5136798;27;20002;-74
2023/12/02 04:35:54;;;;;;;;;;;-1.30;99.90;;;;;;5126862;27;19916;-74
2023/12/02 04:38:20;;;;;;;;;;;-1.30;99.90;;;;;;5075170;28;19935;-74
2023/12/02 04:40:45;;;;;;;;;;;-1.30;99.90;;;;;;5126126;27;19943;-74
2023/12/02 04:43:12;;;;;;;;;;;-1.30;99.90;;;;;;5126532;27;19973;-74
2023/12/02 04:45:37;;;;;;;;;;;-1.40;99.90;;;;;;5126169;27;20298;-74
2023/12/02 04:48:03;;;;;;;;;;;-1.30;99.90;;;;;;5126107;27;19963;-74
2023/12/02 04:50:28;;;;;;;;;;;-1.40;99.90;;;;;;5091945;28;19926;-74
2023/12/02 04:52:54;;;;;;;;;;;-1.30;99.90;;;;;;5126088;27;19951;-74
2023/12/02 04:55:20;;;;;;;;;;;-1.30;99.90;;;;;;5126848;27;19931;-75
2023/12/02 04:57:45;;;;;;;;;;;-1.30;99.90;;;;;;5091776;28;19966;-74
2023/12/02 05:00:14;;;;;;;;;;;-1.40;99.90;;;;;;5143213;27;19923;-74
2023/12/02 05:02:41;;;;;;;;;;;-1.40;99.90;;;;;;5091153;28;19924;-74
2023/12/02 05:05:07;;;;;;;;;;;-1.40;99.90;;;;;;5108471;28;19981;-74
2023/12/02 05:07:32;;;;;;;;;;;-1.40;99.90;;;;;;5125812;27;19916;-74
2023/12/02 05:09:58;;;;;;;;;;;-1.40;99.90;;;;;;5125560;27;19916;-74
2023/12/02 05:12:24;;;;;;;;;;;-1.40;99.90;;;;;;5124891;27;19945;-74
2023/12/02 05:14:49;;;;;;;;;;;-1.40;99.90;;;;;;5125545;27;19927;-74
2023/12/02 05:17:15;;;;;;;;;;;-1.40;99.90;;;;;;5091880;28;19927;-74
2023/12/02 05:19:40;;;;;;;;;;;-1.40;99.90;;;;;;5091500;28;19920;-74
2023/12/02 05:22:06;;;;;;;;;;;-1.40;99.90;;;;;;5125498;27;19923;-74
2023/12/02 05:24:32;;;;;;;;;;;-1.40;99.90;;;;;;5108613;28;19994;-73
2023/12/02 05:26:57;;;;;;;;;;;-1.40;99.90;;;;;;5108182;28;20387;-74
2023/12/02 05:29:23;;;;;;;;;;;-1.50;99.90;;;;;;5091402;28;19949;-74
2023/12/02 05:31:48;;;;;;;;;;;-1.40;99.90;;;;;;5091607;28;19920;-74
2023/12/02 05:34:14;;;;;;;;;;;-1.40;99.90;;;;;;5124720;27;20413;-73
2023/12/02 05:36:40;;;;;;;;;;;-1.40;99.90;;;;;;5091086;28;19951;-73
2023/12/02 05:39:09;;;;;;;;;;;-1.40;99.90;;;;;;5107799;28;19930;-73
2023/12/02 05:41:34;;;;;;;;;;;-1.40;99.90;;;;;;5125189;27;19923;-73
2023/12/02 05:44:00;;;;;;;;;;;-1.40;99.90;;;;;;5125305;27;19923;-73
2023/12/02 05:46:25;;;;;;;;;;;-1.40;99.90;;;;;;5090968;28;19919;-74
2023/12/02 05:48:51;;;;;;;;;;;-1.40;99.90;;;;;;5107886;28;19970;-74
2023/12/02 05:51:16;;;;;;;;;;;-1.40;99.90;;;;;;5124213;27;20017;-74
2023/12/02 05:53:42;;;;;;;;;;;-1.40;99.90;;;;;;5107635;28;19915;-74
2023/12/02 05:56:08;;;;;;;;;;;-1.40;99.90;;;;;;5107791;28;19920;-74
2023/12/02 05:58:34;;;;;;;;;;;-1.40;99.90;;;;;;5124886;27;19924;-74
2023/12/02 06:00:59;;;;;;;;;;;-1.40;99.90;;;;;;5125132;27;19924;-74
2023/12/02 06:03:25;;;;;;;;;;;-1.40;99.90;;;;;;5124787;27;19920;-74
2023/12/02 06:05:50;;;;;;;;;;;-1.40;99.90;;;;;;5107567;28;19958;-74
2023/12/02 06:08:16;;;;;;;;;;;-1.50;99.90;;;;;;5090802;28;19916;-74
2023/12/02 06:10:41;;;;;;;;;;;-1.40;99.90;;;;;;5107793;28;19916;-74
2023/12/02 06:13:07;;;;;;;;;;;-1.40;99.90;;;;;;5090532;28;20287;-74
2023/12/02 06:15:33;;;;;;;;;;;-1.40;99.90;;;;;;5126487;27;19920;-74
2023/12/02 06:17:58;;;;;;;;;;;-1.40;99.90;;;;;;5110647;28;19924;-74
2023/12/02 06:20:27;;;;;;;;;;;-1.40;99.90;;;;;;5110121;28;19922;-74
2023/12/02 06:22:53;;;;;;;;;;;-1.40;99.90;;;;;;5110733;28;19915;-74
2023/12/02 06:25:19;;;;;;;;;;;-1.40;99.90;;;;;;5111090;28;19919;-74
2023/12/02 06:27:45;;;;;;;;;;;-1.40;99.90;;;;;;5111031;28;20459;-74
2023/12/02 06:30:11;;;;;;;;;;;-1.40;99.90;;;;;;5110499;28;19926;-74
2023/12/02 06:32:37;;;;;;;;;;;-1.40;99.90;;;;;;5110760;28;19922;-74
2023/12/02 06:35:04;;;;;;;;;;;-1.40;99.90;;;;;;5110897;28;19915;-75
2023/12/02 06:37:29;;;;;;;;;;;-1.40;99.90;;;;;;5110346;28;20014;-74
2023/12/02 06:39:55;;;;;;;;;;;-1.40;99.90;;;;;;5110309;28;19970;-74
2023/12/02 06:42:21;;;;;;;;;;;-1.40;99.90;;;;;;5110924;28;19920;-74
2023/12/02 06:44:46;;;;;;;;;;;-1.40;99.90;;;;;;5110492;28;20385;-74
2023/12/02 06:47:13;;;;;;;;;;;-1.40;99.90;;;;;;5110853;28;19969;-74
2023/12/02 06:49:38;;;;;;;;;;;-1.40;99.90;;;;;;5110464;28;19919;-74
2023/12/02 06:52:04;;;;;;;;;;;-1.30;99.90;;;;;;5127560;28;20290;-74
2023/12/02 06:54:34;;;;;;;;;;;-1.40;99.90;;;;;;5110326;28;19973;-74
2023/12/02 06:57:00;;;;;;;;;;;-1.30;99.90;;;;;;5110604;28;19972;-75
2023/12/02 06:59:25;;;;;;;;;;;-1.40;99.90;;;;;;5110551;28;19919;-73
2023/12/02 07:01:51;;;;;;;;;;;-1.40;99.90;;;;;;5111035;28;19927;-74
2023/12/02 07:04:17;;;;;;;;;;;-1.40;99.90;;;;;;5114995;28;19916;-74
2023/12/02 07:06:42;;;;;;;;;;;-1.40;99.90;;;;;;5131819;27;19919;-75
2023/12/02 07:09:08;;;;;;;;;;;-1.40;99.90;;;;;;5097791;28;19935;-74
2023/12/02 07:11:33;;;;;;;;;;;-1.40;99.90;;;;;;5116101;28;20372;-75
2023/12/02 07:13:59;;;;;;;;;;;-1.30;99.90;;;;;;5114251;28;19915;-74
2023/12/02 07:16:24;;;;;;;;;;;-1.40;99.90;;;;;;5130538;27;19922;-74
2023/12/02 07:18:50;;;;;;;;;;;-1.40;99.90;;;;;;5113522;28;19924;-74
2023/12/02 07:21:16;;;;;;;;;;;-1.40;99.90;;;;;;5113517;28;19919;-74
2023/12/02 07:23:42;;;;;;;;;;;-1.40;99.90;;;;;;5130912;27;20379;-74
2023/12/02 07:26:09;;;;;;;;;;;-1.40;99.90;;;;;;5113911;28;19969;-74
2023/12/02 07:28:34;;;;;;;;;;;-1.40;99.90;;;;;;5114111;28;19915;-75
2023/12/02 07:31:00;;;;;;;;;;;-1.40;99.90;;;;;;5114361;28;20278;-74
2023/12/02 07:33:25;;;;;;;;;;;-1.40;99.90;;;;;;5113855;28;19919;-74
2023/12/02 07:35:51;;;;;;;;;;;-1.40;99.90;;;;;;5113985;28;19915;-74
2023/12/02 07:38:17;;;;;;;;;;;-1.40;99.90;;;;;;5113988;28;19923;-74
2023/12/02 07:40:42;;;;;;;;;;;-1.50;99.90;;;;;;5131004;27;20363;-74
2023/12/02 07:43:08;;;;;;;;;;;-1.40;99.90;;;;;;5114200;28;19916;-74
2023/12/02 07:45:34;;;;;;;;;;;-1.40;99.90;;;;;;5113875;28;19919;-74
2023/12/02 07:48:00;;;;;;;;;;;-1.40;99.90;;;;;;5131321;27;19923;-74
2023/12/02 07:50:25;;;;;;;;;;;-1.40;99.90;;;;;;5131197;27;19927;-74
2023/12/02 07:52:51;;;;;;;;;;;-1.50;99.90;;;;;;5114202;28;19941;-74
2023/12/02 07:55:17;;;;;;;;;;;-1.50;99.90;;;;;;5130708;27;19961;-74
2023/12/02 07:57:42;;;;;;;;;;;-1.40;99.90;;;;;;5113386;28;19942;-74
2023/12/02 08:00:08;;;;;;;;;;;-1.40;99.90;;;;;;5148113;27;19926;-74
2023/12/02 08:02:34;;;;;;;;;;;-1.40;99.90;;;;;;5112140;28;20350;-75
2023/12/02 08:04:59;;;;;;;;;;;-1.40;99.90;;;;;;5113390;28;19922;-75
2023/12/02 08:07:25;;;;;;;;;;;-1.40;99.90;;;;;;5113299;28;20329;-75
2023/12/02 08:09:51;;;;;;;;;;;-1.40;99.90;;;;;;5112873;28;19998;-75
2023/12/02 08:12:16;;;;;;;;;;;-1.30;99.90;;;;;;5113040;28;19920;-76
2023/12/02 08:14:42;;;;;;;;;;;-1.30;99.90;;;;;;5112420;28;19971;-76
2023/12/02 08:17:07;;;;;;;;;;;-1.30;99.90;;;;;;5112163;28;20375;-76
2023/12/02 08:19:33;;;;;;;;;;;-1.20;99.90;;;;;;5129802;27;19920;-76
2023/12/02 08:21:59;;;;;;;;;;;-1.20;99.90;;;;;;5112132;28;19919;-75
2023/12/02 08:24:24;;;;;;;;;;;-1.20;99.90;;;;;;5112968;28;20026;-75
2023/12/02 08:26:50;;;;;;;;;;;-1.10;99.90;;;;;;5112501;28;19923;-75
2023/12/02 08:29:16;;;;;;;;;;;-1.10;99.90;;;;;;5112628;28;19919;-75
2023/12/02 08:31:42;;;;;;;;;;;-1.00;99.90;;;;;;5130466;27;20255;-76
2023/12/02 08:34:07;;;;;;;;;;;-1.00;99.90;;;;;;5112955;28;20006;-76
2023/12/02 08:36:33;;;;;;;;;;;-1.00;99.90;;;;;;5129865;27;19916;-76
2023/12/02 08:38:58;;;;;;;;;;;-0.90;99.90;;;;;;5112463;28;20006;-76
2023/12/02 08:41:24;;;;;;;;;;;-1.00;99.90;;;;;;5112881;28;19992;-75
2023/12/02 08:43:50;;;;;;;;;;;-0.90;99.90;;;;;;5129500;27;20431;-75
2023/12/02 08:46:19;;;;;;;;;;;-0.90;99.90;;;;;;5129892;27;19920;-75
2023/12/02 08:48:45;;;;;;;;;;;-0.80;99.90;;;;;;5112813;28;20312;-75
2023/12/02 08:51:10;;;;;;;;;;;-0.80;99.90;;;;;;5112364;28;19919;-75
2023/12/02 08:53:36;;;;;;;;;;;-0.70;99.90;;;;;;5112772;28;20025;-76
2023/12/02 08:56:02;;;;;;;;;;;-0.70;99.90;;;;;;5129464;27;20282;-75
2023/12/02 08:58:27;;;;;;;;;;;-0.70;99.90;;;;;;5146592;27;19924;-75
2023/12/02 09:00:53;;;;;;;;;;;-0.70;99.90;;;;;;5129456;27;20006;-75
2023/12/02 09:03:18;;;;;;;;;;;-0.70;99.90;;;;;;5112444;28;19916;-75
2023/12/02 09:05:44;;;;;;;;;;;-0.70;99.90;;;;;;5112169;28;19915;-74
2023/12/02 09:08:09;;;;;;;;;;;-0.60;99.90;;;;;;5146379;27;19920;-75
2023/12/02 09:10:35;;;;;;;;;;;-0.50;99.90;;;;;;5129121;27;19973;-75
2023/12/02 09:13:06;;;;;;;;;;;-0.50;99.90;;;;;;5111939;28;19919;-75
2023/12/02 09:15:38;;;;;;;;;;;-0.50;99.90;;;;;;5111839;28;19923;-76
2023/12/02 09:18:03;;;;;;;;;;;-0.40;99.90;;;;;;5124575;27;20019;-76
2023/12/02 09:20:50;;;;;;;;;;;-0.40;99.90;;;;;;5091038;28;20022;-75
2023/12/02 09:23:17;;;;;;;;;;;-0.40;99.90;;;;;;5090454;28;19927;-76
2023/12/02 09:25:43;;;;;;;;;;;-0.30;99.90;;;;;;5074853;28;19916;-76
2023/12/02 09:28:15;;;;;;;;;;;-0.20;99.90;;;;;;5091326;28;19962;-75
2023/12/02 09:30:45;;;;;;;;;;;-0.20;99.90;;;;;;5091181;28;19920;-75
2023/12/02 09:33:11;;;;;;;;;;;-0.10;99.90;;;;;;5102521;28;19984;-75
2023/12/02 09:35:36;;;;;;;;;;;0.00;99.90;;;;;;5128561;27;19920;-76
2023/12/02 09:38:02;;;;;;;;;;;0.10;99.90;;;;;;5111426;28;19920;-76
2023/12/02 09:40:28;;;;;;;;;;;0.10;99.90;;;;;;5111646;28;19915;-76
2023/12/02 09:43:17;;;;;;;;;;;0.20;99.90;;;;;;5111570;28;19927;-77
2023/12/02 09:45:48;;;;;;;;;;;0.20;99.90;;;;;;5082660;28;20393;-77
2023/12/02 09:48:19;;;;;;;;;;;0.20;99.90;;;;;;5094497;28;19916;-77
2023/12/02 09:50:47;;;;;;;;;;;0.40;99.90;;;;;;5111418;28;19922;-77
2023/12/02 09:53:28;;;;;;;;;;;0.40;99.90;;;;;;5128510;27;19916;-76
2023/12/02 09:56:03;;;;;;;;;;;0.50;99.90;;;;;;5111308;28;19915;-77
2023/12/02 09:58:42;;;;;;;;;;;0.50;99.90;;;;;;5094605;28;19927;-77
2023/12/02 10:01:15;;;;;;;;;;;0.60;99.90;;;;;;5111208;28;19915;-77
2023/12/02 10:03:49;;;;;;;;;;;0.60;99.90;;;;;;5111120;28;20006;-77
2023/12/02 10:06:24;;;;;;;;;;;0.80;99.90;;;;;;5111204;28;20283;-77
2023/12/02 10:09:00;;;;;;;;;;;0.80;99.90;;;;;;5111141;28;19944;-77
2023/12/02 10:11:49;;;;;;;;;;;0.80;99.90;;;;;;5111144;28;19971;-78
2023/12/02 10:14:16;;;;;;;;;;;1.00;99.90;;;;;;5103129;28;20349;-78
2023/12/02 10:16:43;;;;;;;;;;;1.10;99.90;;;;;;5111122;28;20002;-77
2023/12/02 10:19:11;;;;;;;;;;;1.10;99.90;;;;;;5109598;28;19924;-75
2023/12/02 10:21:39;;;;;;;;;;;1.20;99.90;;;;;;5127925;27;20268;-75
2023/12/02 10:24:10;;;;;;;;;;;1.30;99.90;;;;;;5109673;28;19926;-75
2023/12/02 10:26:51;;;;;;;;;;;1.30;99.90;;;;;;5111182;28;19942;-75
2023/12/02 10:29:16;;;;;;;;;;;1.30;99.90;;;;;;5110615;28;19919;-75
2023/12/02 10:31:50;;;;;;;;;;;1.30;99.90;;;;;;5110690;28;20010;-75
2023/12/02 10:34:19;;;;;;;;;;;1.40;99.90;;;;;;5110840;28;20328;-76
2023/12/02 10:36:46;;;;;;;;;;;1.40;99.90;;;;;;5110391;28;19997;-73
2023/12/02 10:39:14;;;;;;;;;;;1.40;99.90;;;;;;5110026;28;19969;-73
2023/12/02 10:41:51;;;;;;;;;;;1.40;99.90;;;;;;5110650;28;19930;-73
2023/12/02 10:44:19;;;;;;;;;;;1.40;99.90;;;;;;5110650;28;19916;-73
2023/12/02 10:46:45;;;;;;;;;;;1.60;99.90;;;;;;5110629;28;20026;-73
2023/12/02 10:49:14;;;;;;;;;;;1.90;99.90;;;;;;5127361;28;20375;-73
2023/12/02 10:51:41;;;;;;;;;;;2.10;99.90;;;;;;5110519;28;20381;-73
2023/12/02 10:54:08;;;;;;;;;;;2.30;99.90;;;;;;5110559;28;20271;-74
2023/12/02 10:56:36;;;;;;;;;;;2.50;99.90;;;;;;5127644;27;20367;-73
2023/12/02 10:59:02;;;;;;;;;;;2.60;99.90;;;;;;5127313;28;20003;-74
2023/12/02 11:01:47;;;;;;;;;;;2.60;99.90;;;;;;5110748;28;20006;-73
2023/12/02 11:04:39;;;;;;;;;;;2.50;99.90;;;;;;5110498;28;20022;-73
2023/12/02 11:07:07;;;;;;;;;;;2.60;99.90;;;;;;5090600;28;20278;-73
2023/12/02 11:09:48;;;;;;;;;;;2.50;99.90;;;;;;5127302;28;19955;-74
2023/12/02 11:12:20;;;;;;;;;;;2.60;99.90;;;;;;5127412;28;19919;-73
2023/12/02 11:14:46;;;;;;;;;;;2.60;99.90;;;;;;5110295;28;19920;-74
2023/12/02 11:17:15;;;;;;;;;;;2.50;99.90;;;;;;5110358;28;20344;-73
2023/12/02 11:19:51;;;;;;;;;;;2.60;99.90;;;;;;5125831;28;19919;-74
2023/12/02 11:22:16;;;;;;;;;;;2.60;99.90;;;;;;5109922;28;20097;-73
2023/12/02 11:24:52;;;;;;;;;;;2.50;99.90;;;;;;5126314;27;20025;-73
2023/12/02 11:27:26;;;;;;;;;;;2.60;99.90;;;;;;5110168;28;19954;-74
2023/12/02 11:29:58;;;;;;;;;;;2.60;99.90;;;;;;5109882;28;19917;-73
2023/12/02 11:32:31;;;;;;;;;;;2.50;99.90;;;;;;5110112;28;19915;-74
2023/12/02 11:34:57;;;;;;;;;;;2.60;99.90;;;;;;5110168;28;19923;-73
2023/12/02 11:37:41;;;;;;;;;;;2.60;99.90;;;;;;5127169;28;19934;-74
2023/12/02 11:40:13;;;;;;;;;;;2.50;99.90;;;;;;5110277;28;19919;-74
2023/12/02 11:42:46;;;;;;;;;;;2.50;99.90;;;;;;5110398;28;20014;-74
2023/12/02 11:45:32;;;;;;;;;;;2.60;99.90;;;;;;5127037;28;19998;-74
2023/12/02 11:48:04;;;;;;;;;;;2.60;99.90;;;;;;5110072;28;20006;-73
2023/12/02 11:50:48;;;;;;;;;;;2.50;99.90;;;;;;5112467;28;20372;-74
2023/12/02 11:53:17;;;;;;;;;;;2.60;99.90;;;;;;5131212;27;19916;-74
2023/12/02 11:55:50;;;;;;;;;;;2.60;99.90;;;;;;5113578;28;19959;-74
2023/12/02 11:58:52;;;;;;;;;;;2.60;99.90;;;;;;5096576;28;19916;-74
2023/12/02 12:01:29;;;;;;;;;;;2.60;99.90;;;;;;5038634;28;20390;-74
2023/12/02 12:03:57;;;;;;;;;;;2.50;99.90;;;;;;5105325;28;19924;-74
2023/12/02 12:06:29;;;;;;;;;;;2.60;99.90;;;;;;5113341;28;20022;-74
2023/12/02 12:09:21;;;;;;;;;;;2.60;99.90;;;;;;5113332;28;19976;-74
2023/12/02 12:11:47;;;;;;;;;;;2.50;99.90;;;;;;5110343;28;20006;-74
2023/12/02 12:14:14;;;;;;;;;;;2.50;99.90;;;;;;5113146;28;19969;-74
2023/12/02 12:17:00;;;;;;;;;;;2.60;99.90;;;;;;5130514;27;19916;-75
2023/12/02 12:19:28;;;;;;;;;;;2.50;99.90;;;;;;5125236;27;19946;-79
2023/12/02 12:21:55;;;;;;;;;;;2.50;99.90;;;;;;5111757;28;19926;-79
2023/12/02 12:24:21;;;;;;;;;;;2.60;99.90;;;;;;5130249;27;19993;-78
2023/12/02 12:26:46;;;;;;;;;;;2.60;99.90;;;;;;5112099;28;20382;-78
2023/12/02 12:29:12;;;;;;;;;;;2.60;99.90;;;;;;5129339;27;19915;-78
2023/12/02 12:31:38;;;;;;;;;;;2.60;99.90;;;;;;5112923;28;19919;-78
2023/12/02 12:34:09;;;;;;;;;;;2.70;99.90;;;;;;5113278;28;20335;-79
2023/12/02 12:36:35;;;;;;;;;;;2.60;99.90;;;;;;5113056;28;20302;-78
2023/12/02 12:39:01;;;;;;;;;;;2.70;99.90;;;;;;5112595;28;19923;-78
2023/12/02 12:41:27;;;;;;;;;;;2.70;99.90;;;;;;5113217;28;20374;-78
2023/12/02 12:43:53;;;;;;;;;;;2.70;99.90;;;;;;5112791;28;19922;-78
2023/12/02 12:46:19;;;;;;;;;;;2.80;99.90;;;;;;5112704;28;20378;-78
2023/12/02 12:48:51;;;;;;;;;;;2.80;99.90;;;;;;5112646;28;19992;-78
2023/12/02 12:51:18;;;;;;;;;;;2.80;99.90;;;;;;5112766;28;19916;-78
2023/12/02 12:53:49;;;;;;;;;;;2.80;99.90;;;;;;5112365;28;20389;-78
2023/12/02 12:56:19;;;;;;;;;;;2.90;99.90;;;;;;5112670;28;19916;-78
2023/12/02 12:58:54;;;;;;;;;;;2.90;99.90;;;;;;5112536;28;19989;-78
2023/12/02 13:01:21;;;;;;;;;;;2.90;99.90;;;;;;5095507;28;19938;-78
2023/12/02 13:03:50;;;;;;;;;;;2.90;99.90;;;;;;5112637;28;20010;-78
2023/12/02 13:06:38;;;;;;;;;;;2.90;99.90;;;;;;5112297;28;19927;-78
2023/12/02 13:09:08;;;;;;;;;;;2.80;99.90;;;;;;5129869;27;20383;-78
2023/12/02 13:11:52;;;;;;;;;;;2.90;99.90;;;;;;5112208;28;20412;-78
2023/12/02 13:14:20;;;;;;;;;;;2.80;99.90;;;;;;5129271;27;19916;-78
2023/12/02 13:16:46;;;;;;;;;;;2.90;99.90;;;;;;5112138;28;19964;-78
2023/12/02 13:19:12;;;;;;;;;;;2.90;99.90;;;;;;5112317;28;19924;-80
2023/12/02 13:21:40;;;;;;;;;;;3.00;99.90;;;;;;5111571;28;19919;-80
2023/12/02 13:24:06;;;;;;;;;;;2.90;99.90;;;;;;5108548;28;19920;-80
2023/12/02 13:26:36;;;;;;;;;;;3.00;99.90;;;;;;5108134;28;20409;-79
2023/12/02 13:29:05;;;;;;;;;;;3.10;99.90;;;;;;5125365;27;19927;-79
2023/12/02 13:31:32;;;;;;;;;;;3.20;99.90;;;;;;5091307;28;20025;-78
2023/12/02 13:34:21;;;;;;;;;;;3.30;99.90;;;;;;5109400;28;20259;-79
2023/12/02 13:36:48;;;;;;;;;;;3.40;99.90;;;;;;5111644;28;19915;-79
2023/12/02 13:39:27;;;;;;;;;;;3.50;99.90;;;;;;5111498;28;20429;-79
2023/12/02 13:41:53;;;;;;;;;;;3.60;99.90;;;;;;5111846;28;19916;-78
2023/12/02 13:44:21;;;;;;;;;;;3.80;99.90;;;;;;5094470;28;20375;-79
2023/12/02 13:46:49;;;;;;;;;;;3.80;99.90;;;;;;5111906;28;19922;-79
2023/12/02 13:49:39;;;;;;;;;;;3.80;99.90;;;;;;5111564;28;20103;-79
2023/12/02 13:52:11;;;;;;;;;;;3.70;99.90;;;;;;5103705;28;19974;-79
2023/12/02 13:54:49;;;;;;;;;;;3.70;99.90;;;;;;5111331;28;19919;-79
2023/12/02 13:57:36;;;;;;;;;;;3.60;99.90;;;;;;5111459;28;20393;-79
2023/12/02 14:00:06;;;;;;;;;;;3.50;99.90;;;;;;5111269;28;19924;-79
2023/12/02 14:03:00;;;;;;;;;;;3.50;99.90;;;;;;5146092;27;19920;-79
2023/12/02 14:05:36;;;;;;;;;;;3.40;99.90;;;;;;5111586;28;20371;-79
2023/12/02 14:08:02;;;;;;;;;;;3.30;99.90;;;;;;5111199;28;19931;-79
2023/12/02 14:10:29;;;;;;;;;;;3.20;99.90;;;;;;5111405;28;19923;-79
2023/12/02 14:12:54;;;;;;;;;;;3.20;99.90;;;;;;5144639;27;19934;-79
2023/12/02 14:15:33;;;;;;;;;;;3.00;99.90;;;;;;5111106;28;19927;-79
2023/12/02 14:18:17;;;;;;;;;;;3.00;99.90;;;;;;5094103;28;20362;-80
2023/12/02 14:20:55;;;;;;;;;;;3.00;99.90;;;;;;5111020;28;19916;-79
2023/12/02 14:23:21;;;;;;;;;;;3.00;99.90;;;;;;5109805;28;19966;-79
2023/12/02 14:25:52;;;;;;;;;;;2.90;99.90;;;;;;5110502;28;19962;-79